createdAt,value
2019-02-24T00:02:05.097Z,46.43
2019-02-24T00:04:37.426Z,45.70
2019-02-24T00:07:07.459Z,45.80
2019-02-24T00:09:38.029Z,46.03
2019-02-24T00:12:07.909Z,46.03
2019-02-24T00:14:37.595Z,45.72
2019-02-24T00:17:07.726Z,46.14
2019-02-24T00:19:37.498Z,45.46
2019-02-24T00:22:10.325Z,45.46
2019-02-24T00:24:40.256Z,44.54
2019-02-24T00:27:10.441Z,44.54
2019-02-24T00:29:40.181Z,44.58
2019-02-24T00:32:10.237Z,44.58
2019-02-24T00:34:40.129Z,44.20
2019-02-24T00:37:09.859Z,44.20
2019-02-24T00:39:40.145Z,44.30
2019-02-24T00:42:09.882Z,44.33
2019-02-24T00:44:39.750Z,44.33
2019-02-24T00:47:12.142Z,43.65
2019-02-24T00:49:41.797Z,42.88
2019-02-24T00:52:13.019Z,42.88
2019-02-24T00:54:42.715Z,43.35
2019-02-24T00:57:12.492Z,43.38
2019-02-24T00:59:42.348Z,42.29
2019-02-24T01:02:12.469Z,42.07
2019-02-24T01:04:42.789Z,42.07
2019-02-24T01:07:12.858Z,41.80
2019-02-24T01:09:42.796Z,41.80
2019-02-24T01:12:12.769Z,41.79
2019-02-24T01:14:42.550Z,41.63
2019-02-24T01:17:15.099Z,41.84
2019-02-24T01:19:45.067Z,41.84
2019-02-24T01:22:15.853Z,41.38
2019-02-24T01:24:46.027Z,41.38
2019-02-24T01:27:15.703Z,41.02
2019-02-24T01:29:45.655Z,41.02
2019-02-24T01:32:15.520Z,40.51
2019-02-24T01:34:45.415Z,40.68
2019-02-24T01:37:15.702Z,40.68
2019-02-24T01:39:45.468Z,40.66
2019-02-24T01:42:15.289Z,40.27
2019-02-24T01:44:45.143Z,40.27
2019-02-24T01:47:15.054Z,40.20
2019-02-24T01:49:45.355Z,40.20
2019-02-24T01:52:15.964Z,40.58
2019-02-24T01:54:46.011Z,40.72
2019-02-24T01:57:15.686Z,40.95
2019-02-24T01:59:45.626Z,41.10
2019-02-24T02:02:15.248Z,41.10
2019-02-24T02:04:45.463Z,40.90
2019-02-24T02:07:15.335Z,40.90
2019-02-24T02:09:47.852Z,41.15
2019-02-24T02:12:24.693Z,41.15
2019-02-24T02:14:54.648Z,41.54
2019-02-24T02:17:25.022Z,41.54
2019-02-24T02:19:54.954Z,41.29
2019-02-24T02:22:24.834Z,41.37
2019-02-24T02:24:54.773Z,41.33
2019-02-24T02:27:24.498Z,41.87
2019-02-24T02:29:54.746Z,41.87
2019-02-24T02:32:25.084Z,41.17
2019-02-24T02:34:55.008Z,40.87
2019-02-24T02:37:28.101Z,41.36
2019-02-24T02:39:59.378Z,40.87
2019-02-24T02:42:28.914Z,40.87
2019-02-24T02:44:58.788Z,40.61
2019-02-24T02:47:28.621Z,40.25
2019-02-24T02:49:58.194Z,40.18
2019-02-24T02:52:28.461Z,40.18
2019-02-24T02:54:58.379Z,40.19
2019-02-24T02:57:28.408Z,39.93
2019-02-24T02:59:58.614Z,40.23
2019-02-24T03:02:28.283Z,40.23
2019-02-24T03:04:57.966Z,39.42
2019-02-24T03:07:36.889Z,39.19
2019-02-24T03:10:07.491Z,39.19
2019-02-24T03:12:37.163Z,38.87
2019-02-24T03:15:10.450Z,38.67
2019-02-24T03:17:40.087Z,39.22
2019-02-24T03:20:09.889Z,39.22
2019-02-24T03:22:39.713Z,39.62
2019-02-24T03:25:09.373Z,39.62
2019-02-24T03:27:39.194Z,39.66
2019-02-24T03:30:09.427Z,39.82
2019-02-24T03:32:40.024Z,39.85
2019-02-24T03:35:12.304Z,39.28
2019-02-24T03:37:42.089Z,39.28
2019-02-24T03:40:11.932Z,39.91
2019-02-24T03:42:41.634Z,39.81
2019-02-24T03:45:11.927Z,39.81
2019-02-24T03:47:41.731Z,39.77
2019-02-24T03:50:11.216Z,39.31
2019-02-24T03:52:41.087Z,39.31
2019-02-24T03:55:10.785Z,39.31
2019-02-24T03:57:40.471Z,39.35
2019-02-24T04:00:11.800Z,39.43
2019-02-24T04:02:41.623Z,39.34
2019-02-24T04:05:11.601Z,38.44
2019-02-24T04:07:41.994Z,39.66
2019-02-24T04:10:13.361Z,38.75
2019-02-24T04:12:43.249Z,38.08
2019-02-24T04:15:13.420Z,38.26
2019-02-24T04:17:43.234Z,38.79
2019-02-24T04:20:13.107Z,38.60
2019-02-24T04:22:43.060Z,38.11
2019-02-24T04:25:12.916Z,37.13
2019-02-24T04:27:42.782Z,37.13
2019-02-24T04:30:12.841Z,37.69
2019-02-24T04:32:43.146Z,38.31
2019-02-24T04:35:12.802Z,36.10
2019-02-24T04:37:42.530Z,36.10
2019-02-24T04:40:12.541Z,37.51
2019-02-24T04:42:42.190Z,37.08
2019-02-24T04:45:11.948Z,36.10
2019-02-24T04:47:41.521Z,36.10
2019-02-24T04:50:11.209Z,37.48
2019-02-24T04:52:41.026Z,36.23
2019-02-24T04:57:40.279Z,35.11
2019-02-24T05:00:10.115Z,33.46
2019-02-24T05:02:41.250Z,34.74
2019-02-24T05:05:11.041Z,34.19
2019-02-24T05:07:40.845Z,35.26
2019-02-24T05:10:11.944Z,35.09
2019-02-24T05:12:41.696Z,35.09
2019-02-24T05:15:11.551Z,33.75
2019-02-24T05:17:41.189Z,34.66
2019-02-24T05:20:11.095Z,34.06
2019-02-24T05:22:40.641Z,34.41
2019-02-24T05:25:10.252Z,34.33
2019-02-24T05:27:40.322Z,34.56
2019-02-24T05:30:10.126Z,34.56
2019-02-24T05:32:39.750Z,33.42
2019-02-24T05:35:09.751Z,33.42
2019-02-24T05:37:40.014Z,36.18
2019-02-24T05:40:09.679Z,33.96
2019-02-24T05:42:39.295Z,33.62
2019-02-24T05:45:08.854Z,33.62
2019-02-24T05:47:40.446Z,32.83
2019-02-24T05:50:10.349Z,33.28
2019-02-24T05:52:39.968Z,32.44
2019-02-24T05:55:09.549Z,34.38
2019-02-24T05:57:39.434Z,33.02
2019-02-24T06:00:09.375Z,32.10
2019-02-24T06:02:39.104Z,32.69
2019-02-24T06:05:11.536Z,32.69
2019-02-24T06:07:41.388Z,31.88
2019-02-24T06:10:10.972Z,33.13
2019-02-24T06:12:40.674Z,32.19
2019-02-24T06:15:10.228Z,32.29
2019-02-24T06:17:39.907Z,31.71
2019-02-24T06:20:09.642Z,31.71
2019-02-24T06:22:39.735Z,31.16
2019-02-24T06:25:09.318Z,30.75
2019-02-24T06:27:39.082Z,31.54
2019-02-24T06:30:11.921Z,30.30
2019-02-24T06:32:41.497Z,29.54
2019-02-24T06:35:13.856Z,29.31
2019-02-24T06:37:43.473Z,29.51
2019-02-24T06:40:13.205Z,29.51
2019-02-24T06:42:42.858Z,29.49
2019-02-24T06:45:15.491Z,29.49
2019-02-24T06:47:45.314Z,30.68
2019-02-24T06:50:15.281Z,29.30
2019-02-24T06:52:45.041Z,29.14
2019-02-24T06:55:14.605Z,30.76
2019-02-24T06:57:44.369Z,29.65
2019-02-24T07:00:15.136Z,29.65
2019-02-24T07:02:45.044Z,29.02
2019-02-24T07:05:17.599Z,28.94
2019-02-24T07:07:47.007Z,28.94
2019-02-24T07:10:16.876Z,28.27
2019-02-24T07:12:47.147Z,29.01
2019-02-24T07:15:19.153Z,27.02
2019-02-24T07:17:48.708Z,27.02
2019-02-24T07:20:18.371Z,29.57
2019-02-24T07:22:48.229Z,27.41
2019-02-24T07:25:18.330Z,27.41
2019-02-24T07:27:48.466Z,27.32
2019-02-24T07:30:23.585Z,27.32
2019-02-24T07:32:50.644Z,29.53
2019-02-24T07:35:20.424Z,26.04
2019-02-24T07:37:50.408Z,26.04
2019-02-24T07:40:20.285Z,25.31
2019-02-24T07:42:49.733Z,26.42
2019-02-24T07:45:19.574Z,25.34
2019-02-24T07:47:49.720Z,26.18
2019-02-24T07:50:20.467Z,24.77
2019-02-24T07:52:50.672Z,25.18
2019-02-24T07:55:21.553Z,25.66
2019-02-24T07:57:51.403Z,25.66
2019-02-24T08:00:21.379Z,25.43
2019-02-24T08:02:51.144Z,25.43
2019-02-24T08:05:23.406Z,25.63
2019-02-24T08:07:53.197Z,25.63
2019-02-24T08:10:23.008Z,26.55
2019-02-24T08:12:53.044Z,24.60
2019-02-24T08:15:22.847Z,25.78
2019-02-24T08:17:52.650Z,24.28
2019-02-24T08:20:23.610Z,24.31
2019-02-24T08:22:53.974Z,25.33
2019-02-24T08:25:25.897Z,25.60
2019-02-24T08:27:55.669Z,23.66
2019-02-24T08:30:25.264Z,23.66
2019-02-24T08:32:54.886Z,24.01
2019-02-24T08:35:27.814Z,23.83
2019-02-24T08:37:58.149Z,23.73
2019-02-24T08:40:29.878Z,23.81
2019-02-24T08:43:00.039Z,23.81
2019-02-24T08:45:29.803Z,24.48
2019-02-24T08:47:59.400Z,24.48
2019-02-24T08:50:30.000Z,24.32
2019-02-24T08:52:59.509Z,23.76
2019-02-24T08:55:29.339Z,23.41
2019-02-24T08:57:59.527Z,23.12
2019-02-24T09:00:29.455Z,22.96
2019-02-24T09:02:59.026Z,23.92
2019-02-24T09:05:29.029Z,23.92
2019-02-24T09:07:58.744Z,24.04
2019-02-24T09:10:30.841Z,22.15
2019-02-24T09:13:00.242Z,23.61
2019-02-24T09:15:29.714Z,21.94
2019-02-24T09:17:59.253Z,22.96
2019-02-24T09:20:31.040Z,22.96
2019-02-24T09:23:01.145Z,21.71
2019-02-24T09:25:31.410Z,21.71
2019-02-24T09:28:01.497Z,24.21
2019-02-24T09:30:31.167Z,23.19
2019-02-24T09:33:00.724Z,23.19
2019-02-24T09:35:31.960Z,22.73
2019-02-24T09:38:01.435Z,24.67
2019-02-24T09:40:31.715Z,24.67
2019-02-24T09:43:01.138Z,22.31
2019-02-24T09:45:31.079Z,21.39
2019-02-24T09:48:00.612Z,20.50
2019-02-24T09:50:31.037Z,21.85
2019-02-24T09:53:00.586Z,20.25
2019-02-24T09:55:31.575Z,20.48
2019-02-24T09:58:01.545Z,20.18
2019-02-24T10:00:34.058Z,20.18
2019-02-24T10:03:03.893Z,20.27
2019-02-24T10:05:33.470Z,20.29
2019-02-24T10:08:03.147Z,20.29
2019-02-24T10:10:33.032Z,20.58
2019-02-24T10:13:02.800Z,19.70
2019-02-24T10:15:32.221Z,18.98
2019-02-24T10:18:01.986Z,18.98
2019-02-24T10:20:31.498Z,21.37
2019-02-24T10:23:02.314Z,21.37
2019-02-24T10:25:31.812Z,18.41
2019-02-24T10:28:05.651Z,18.41
2019-02-24T10:30:36.084Z,19.92
2019-02-24T10:33:05.915Z,18.81
2019-02-24T10:35:35.391Z,21.09
2019-02-24T10:38:05.109Z,19.00
2019-02-24T10:40:35.104Z,19.00
2019-02-24T10:43:04.593Z,18.57
2019-02-24T10:45:34.185Z,18.32
2019-02-24T10:48:13.471Z,17.52
2019-02-24T10:50:35.079Z,17.39
2019-02-24T10:53:05.003Z,17.39
2019-02-24T10:55:35.281Z,18.47
2019-02-24T10:58:04.821Z,19.22
2019-02-24T11:00:34.425Z,19.22
2019-02-24T11:03:04.927Z,18.35
2019-02-24T11:05:35.011Z,18.17
2019-02-24T11:08:04.980Z,18.15
2019-02-24T11:10:34.507Z,18.15
2019-02-24T11:13:07.443Z,19.74
2019-02-24T11:15:37.358Z,19.05
2019-02-24T11:18:07.047Z,19.05
2019-02-24T11:20:37.046Z,17.34
2019-02-24T11:23:06.595Z,17.34
2019-02-24T11:25:36.509Z,18.12
2019-02-24T11:28:08.099Z,18.61
2019-02-24T11:30:37.324Z,17.76
2019-02-24T11:33:07.089Z,17.76
2019-02-24T11:35:36.926Z,18.56
2019-02-24T11:38:06.471Z,18.56
2019-02-24T11:40:35.948Z,17.84
2019-02-24T11:43:05.673Z,16.78
2019-02-24T11:45:36.130Z,16.78
2019-02-24T11:48:05.676Z,17.97
2019-02-24T11:50:35.603Z,17.97
2019-02-24T11:53:05.292Z,19.34
2019-02-24T11:55:35.065Z,18.93
2019-02-24T11:58:06.637Z,17.50
2019-02-24T12:00:36.678Z,15.62
2019-02-24T12:03:08.028Z,15.62
2019-02-24T12:05:37.923Z,17.29
2019-02-24T12:08:07.381Z,18.02
2019-02-24T12:10:38.756Z,18.88
2019-02-24T12:13:08.274Z,19.15
2019-02-24T12:15:37.767Z,19.15
2019-02-24T12:18:07.664Z,18.17
2019-02-24T12:20:37.114Z,19.51
2019-02-24T12:23:06.649Z,18.54
2019-02-24T12:25:36.178Z,18.54
2019-02-24T12:28:05.706Z,18.23
2019-02-24T12:30:38.217Z,19.36
2019-02-24T12:33:07.771Z,19.47
2019-02-24T12:35:39.559Z,18.61
2019-02-24T12:38:10.280Z,18.61
2019-02-24T12:40:39.898Z,19.07
2019-02-24T12:43:10.164Z,18.63
2019-02-24T12:45:41.701Z,19.56
2019-02-24T12:48:11.285Z,19.37
2019-02-24T12:50:41.327Z,18.82
2019-02-24T12:53:10.916Z,19.15
2019-02-24T12:55:40.548Z,19.15
2019-02-24T12:58:15.328Z,19.89
2019-02-24T13:00:45.424Z,19.73
2019-02-24T13:05:51.549Z,20.12
2019-02-24T13:08:21.966Z,19.87
2019-02-24T13:10:51.532Z,18.53
2019-02-24T13:13:21.823Z,19.03
2019-02-24T13:15:51.548Z,19.02
2019-02-24T13:18:21.248Z,18.91
2019-02-24T13:20:50.973Z,18.91
2019-02-24T13:23:22.470Z,18.99
2019-02-24T13:25:53.736Z,19.00
2019-02-24T13:28:23.275Z,19.25
2019-02-24T13:30:53.405Z,19.25
2019-02-24T13:33:23.046Z,19.29
2019-02-24T13:35:52.520Z,18.83
2019-02-24T13:38:25.385Z,18.96
2019-02-24T13:40:55.250Z,19.00
2019-02-24T13:43:27.933Z,18.97
2019-02-24T13:45:57.844Z,20.40
2019-02-24T13:48:27.284Z,20.40
2019-02-24T13:50:57.059Z,18.76
2019-02-24T13:53:26.551Z,18.76
2019-02-24T13:55:56.254Z,18.31
2019-02-24T13:58:25.962Z,18.21
2019-02-24T14:00:57.424Z,18.25
2019-02-24T14:03:37.171Z,18.75
2019-02-24T14:06:07.239Z,18.75
2019-02-24T14:08:38.037Z,18.92
2019-02-24T14:11:07.731Z,18.82
2019-02-24T14:13:39.769Z,17.85
2019-02-24T14:16:09.269Z,18.59
2019-02-24T14:18:43.297Z,18.59
2019-02-24T14:21:11.117Z,18.50
2019-02-24T14:23:40.892Z,18.71
2019-02-24T14:26:17.309Z,18.71
2019-02-24T14:28:50.149Z,19.73
2019-02-24T14:31:19.665Z,18.71
2019-02-24T14:33:49.536Z,18.71
2019-02-24T14:36:19.149Z,18.34
2019-02-24T14:38:49.131Z,18.34
2019-02-24T14:41:18.619Z,19.29
2019-02-24T14:43:48.377Z,18.61
2019-02-24T14:46:17.870Z,18.61
2019-02-24T14:48:50.639Z,19.29
2019-02-24T14:51:20.255Z,19.96
2019-02-24T14:53:50.401Z,19.74
2019-02-24T14:56:20.415Z,19.74
2019-02-24T14:58:50.359Z,20.34
2019-02-24T15:01:20.101Z,20.28
2019-02-24T15:03:49.697Z,20.28
2019-02-24T15:06:19.295Z,20.23
2019-02-24T15:08:51.099Z,19.90
2019-02-24T15:11:21.143Z,20.45
2019-02-24T15:13:52.996Z,19.89
2019-02-24T15:16:24.966Z,19.89
2019-02-24T15:19:02.914Z,19.71
2019-02-24T15:21:32.627Z,18.69
2019-02-24T15:24:02.283Z,19.45
2019-02-24T15:26:35.050Z,20.16
2019-02-24T15:29:06.091Z,19.96
2019-02-24T15:31:37.334Z,19.96
2019-02-24T15:34:11.252Z,19.27
2019-02-24T15:36:43.068Z,20.15
2019-02-24T15:39:12.725Z,20.21
2019-02-24T15:41:42.305Z,20.39
2019-02-24T15:44:12.132Z,20.39
2019-02-24T15:46:41.773Z,20.40
2019-02-24T15:49:11.768Z,21.09
2019-02-24T15:51:42.148Z,19.48
2019-02-24T15:54:12.068Z,19.48
2019-02-24T15:56:41.595Z,20.33
2019-02-24T15:59:14.025Z,20.56
2019-02-24T16:01:43.529Z,20.76
2019-02-24T16:04:13.251Z,20.99
2019-02-24T16:06:44.098Z,21.41
2019-02-24T16:09:15.977Z,20.93
2019-02-24T16:11:45.545Z,20.13
2019-02-24T16:14:15.342Z,21.03
2019-02-24T16:16:44.859Z,20.97
2019-02-24T16:19:15.135Z,21.06
2019-02-24T16:21:44.737Z,21.06
2019-02-24T16:24:14.351Z,22.58
2019-02-24T16:26:44.031Z,21.32
2019-02-24T16:29:13.601Z,21.32
2019-02-24T16:31:46.203Z,22.42
2019-02-24T16:34:16.191Z,22.52
2019-02-24T16:36:46.003Z,22.64
2019-02-24T16:39:16.048Z,22.64
2019-02-24T16:41:46.160Z,22.94
2019-02-24T16:44:18.260Z,24.03
2019-02-24T16:46:48.252Z,27.75
2019-02-24T16:49:18.207Z,27.75
2019-02-24T16:51:47.891Z,27.08
2019-02-24T16:54:17.798Z,27.78
2019-02-24T16:56:47.443Z,29.87
2019-02-24T16:59:17.517Z,27.74
2019-02-24T17:01:47.377Z,30.38
2019-02-24T17:04:21.134Z,31.09
2019-02-24T17:06:50.696Z,30.07
2019-02-24T17:09:20.291Z,30.14
2019-02-24T17:11:49.835Z,30.14
2019-02-24T17:14:20.804Z,31.17
2019-02-24T17:16:51.150Z,32.55
2019-02-24T17:19:20.978Z,30.63
2019-02-24T17:21:50.912Z,30.44
2019-02-24T17:24:23.531Z,30.51
2019-02-24T17:26:53.112Z,29.25
2019-02-24T17:32:02.547Z,28.74
2019-02-24T17:34:32.526Z,28.74
2019-02-24T17:37:02.120Z,29.15
2019-02-24T17:39:32.010Z,29.79
2019-02-24T17:42:02.505Z,29.79
2019-02-24T17:44:32.262Z,31.20
2019-02-24T17:47:01.734Z,31.43
2019-02-24T17:49:31.288Z,31.80
2019-02-24T17:52:02.852Z,31.71
2019-02-24T17:54:39.780Z,32.38
2019-02-24T17:57:10.652Z,32.38
2019-02-24T17:59:40.802Z,33.19
2019-02-24T18:02:13.894Z,33.19
2019-02-24T18:04:44.473Z,33.37
2019-02-24T18:07:14.196Z,34.96
2019-02-24T18:09:44.094Z,34.96
2019-02-24T18:12:13.853Z,34.93
2019-02-24T18:14:43.450Z,34.98
2019-02-24T18:17:13.142Z,35.41
2019-02-24T18:19:45.135Z,35.40
2019-02-24T18:22:16.451Z,35.63
2019-02-24T18:24:47.811Z,35.34
2019-02-24T18:27:18.056Z,35.34
2019-02-24T18:29:48.443Z,35.71
2019-02-24T18:32:19.411Z,36.61
2019-02-24T18:34:50.284Z,36.43
2019-02-24T18:37:19.877Z,36.43
2019-02-24T18:39:51.670Z,36.86
2019-02-24T18:42:22.398Z,37.24
2019-02-24T18:44:53.225Z,37.89
2019-02-24T18:47:22.991Z,37.53
2019-02-24T18:49:52.950Z,38.17
2019-02-24T18:52:22.443Z,38.78
2019-02-24T18:54:52.254Z,38.78
2019-02-24T18:57:25.010Z,38.71
2019-02-24T18:59:58.654Z,38.54
2019-02-24T19:02:28.202Z,38.54
2019-02-24T19:04:57.927Z,39.39
2019-02-24T19:07:27.441Z,39.39
2019-02-24T19:09:58.361Z,40.34
2019-02-24T19:12:30.355Z,40.34
2019-02-24T19:15:02.343Z,40.54
2019-02-24T19:17:34.667Z,39.65
2019-02-24T19:20:05.019Z,39.65
2019-02-24T19:22:35.233Z,40.31
2019-02-24T19:25:04.968Z,39.75
2019-02-24T19:27:34.620Z,39.81
2019-02-24T19:30:07.373Z,40.00
2019-02-24T19:32:37.282Z,40.00
2019-02-24T19:35:07.722Z,39.36
2019-02-24T19:37:37.176Z,38.86
2019-02-24T19:40:08.339Z,37.40
2019-02-24T19:42:39.294Z,37.40
2019-02-24T19:45:09.475Z,36.35
2019-02-24T19:47:47.862Z,36.24
2019-02-24T19:50:17.977Z,35.11
2019-02-24T19:52:48.044Z,35.05
2019-02-24T19:55:17.879Z,35.05
2019-02-24T19:57:48.183Z,35.04
2019-02-24T20:00:21.687Z,34.06
2019-02-24T20:02:51.197Z,34.91
2019-02-24T20:05:20.656Z,34.30
2019-02-24T20:07:53.183Z,34.30
2019-02-24T20:10:23.234Z,34.76
2019-02-24T20:12:53.246Z,34.76
2019-02-24T20:15:26.351Z,35.48
2019-02-24T20:18:03.820Z,36.05
2019-02-24T20:20:34.075Z,36.05
2019-02-24T20:23:04.320Z,34.91
2019-02-24T20:25:34.665Z,34.91
2019-02-24T20:28:06.333Z,34.93
2019-02-24T20:30:35.884Z,35.03
2019-02-24T20:33:06.172Z,35.27
2019-02-24T20:35:35.805Z,35.23
2019-02-24T20:38:05.321Z,35.66
2019-02-24T20:40:38.163Z,35.92
2019-02-24T20:43:10.317Z,36.33
2019-02-24T20:45:42.091Z,37.19
2019-02-24T20:48:13.716Z,37.19
2019-02-24T20:50:44.239Z,38.38
2019-02-24T20:53:16.119Z,38.38
2019-02-24T20:55:46.161Z,37.61
2019-02-24T20:58:16.085Z,39.00
2019-02-24T21:00:46.010Z,38.27
2019-02-24T21:03:15.646Z,38.27
2019-02-24T21:05:45.112Z,39.18
2019-02-24T21:08:16.573Z,39.18
2019-02-24T21:10:46.327Z,37.28
2019-02-24T21:13:16.843Z,35.30
2019-02-24T21:15:47.161Z,35.61
2019-02-24T21:18:16.747Z,35.61
2019-02-24T21:20:47.641Z,37.27
2019-02-24T21:23:20.902Z,35.57
2019-02-24T21:25:51.187Z,36.31
2019-02-24T21:28:21.213Z,36.23
2019-02-24T21:30:50.900Z,37.03
2019-02-24T21:33:21.492Z,37.03
2019-02-24T21:35:51.202Z,36.53
2019-02-24T21:38:23.560Z,36.53
2019-02-24T21:40:54.219Z,37.74
2019-02-24T21:43:24.432Z,38.62
2019-02-24T21:45:54.644Z,38.62
2019-02-24T21:48:25.222Z,36.13
2019-02-24T21:50:54.964Z,35.51
2019-02-24T21:53:24.725Z,35.83
2019-02-24T21:55:54.485Z,35.85
2019-02-24T21:58:24.600Z,36.82
2019-02-24T22:00:54.281Z,36.82
2019-02-24T22:03:24.188Z,37.56
2019-02-24T22:05:54.291Z,35.74
2019-02-24T22:08:24.233Z,35.74
2019-02-24T22:10:53.929Z,35.89
2019-02-24T22:13:24.640Z,35.23
2019-02-24T22:15:55.077Z,36.47
2019-02-24T22:18:25.371Z,35.59
2019-02-24T22:20:55.436Z,35.32
2019-02-24T22:23:25.274Z,34.89
2019-02-24T22:25:55.159Z,35.63
2019-02-24T22:28:24.813Z,35.30
2019-02-24T22:30:54.713Z,35.30
2019-02-24T22:33:24.599Z,33.71
2019-02-24T22:35:54.624Z,33.92
2019-02-24T22:38:24.731Z,34.57
2019-02-24T22:40:55.096Z,34.57
2019-02-24T22:43:24.876Z,34.15
2019-02-24T22:45:54.561Z,34.59
2019-02-24T22:48:26.820Z,36.24
2019-02-24T22:50:56.445Z,36.24
2019-02-24T22:53:26.700Z,36.16
2019-02-24T22:55:56.577Z,35.72
2019-02-24T22:58:26.165Z,35.72
2019-02-24T23:01:18.773Z,34.11
2019-02-24T23:03:50.186Z,34.03
2019-02-24T23:06:19.932Z,34.03
2019-02-24T23:08:49.567Z,33.27
2019-02-24T23:11:19.613Z,32.99
2019-02-24T23:13:49.294Z,31.57
2019-02-24T23:16:18.885Z,31.82
2019-02-24T23:18:48.685Z,32.48
2019-02-24T23:21:19.104Z,33.41
2019-02-24T23:23:50.789Z,34.17
2019-02-24T23:26:20.401Z,33.04
2019-02-24T23:28:50.064Z,32.78
2019-02-24T23:31:19.911Z,34.51
2019-02-24T23:33:49.679Z,34.51
2019-02-24T23:36:19.306Z,33.78
2019-02-24T23:38:49.003Z,32.71
2019-02-24T23:41:18.729Z,32.71
2019-02-24T23:43:48.707Z,35.52
2019-02-24T23:46:18.491Z,34.82
2019-02-24T23:48:56.391Z,33.50
2019-02-24T23:51:26.136Z,33.62
2019-02-24T23:53:58.983Z,32.38
2019-02-24T23:56:28.593Z,32.38
2019-02-24T23:59:01.271Z,34.07
